Time;durP1;ratioP1;P1;durP2;ratioP2;P2;SDS_P1;SDS_P2;PMS_P1;PMS_P2;Temp;Humidity;BMP_temperature;BMP_pressure;BME280_temperature;BME280_humidity;BME280_pressure;Samples;Min_cycle;Max_cycle;Signal;HPM_P1;HPM_P2
2021/08/12 00:01:23;;;;;;;14.38;11.00;;;;;;;25.51;55.81;99574.38;5110607;28;20047;-70
2021/08/12 00:03:49;;;;;;;14.77;11.57;;;;;;;25.63;55.53;99575.81;5104547;28;20676;-69
2021/08/12 00:06:15;;;;;;;18.30;11.15;;;;;;;25.59;55.26;99580.00;5106677;28;20102;-70
2021/08/12 00:08:41;;;;;;;14.38;11.20;;;;;;;25.55;55.42;99582.91;5105215;28;20023;-70
2021/08/12 00:11:07;;;;;;;14.85;11.23;;;;;;;25.38;56.19;99574.19;5110480;28;20030;-69
2021/08/12 00:13:32;;;;;;;17.45;11.13;;;;;;;25.35;55.91;99586.50;5110390;28;20050;-69
2021/08/12 00:16:03;;;;;;;16.90;12.13;;;;;;;25.16;56.86;99582.31;5105596;28;20090;-70
2021/08/12 00:18:29;;;;;;;15.32;12.48;;;;;;;25.15;56.94;99574.94;5110501;28;20028;-69
2021/08/12 00:20:55;;;;;;;16.17;11.68;;;;;;;25.07;56.98;99579.97;5110780;28;20108;-69
2021/08/12 00:23:20;;;;;;;15.20;12.10;;;;;;;24.97;57.50;99586.66;5111001;28;20444;-69
2021/08/12 00:25:46;;;;;;;13.98;12.57;;;;;;;24.93;57.22;99592.47;5097836;28;20034;-70
2021/08/12 00:28:12;;;;;;;16.98;12.48;;;;;;;25.00;56.77;99596.44;5111006;28;20023;-69
2021/08/12 00:30:38;;;;;;;19.90;12.85;;;;;;;24.96;57.32;99602.22;5109022;28;20038;-69
2021/08/12 00:33:03;;;;;;;15.07;13.48;;;;;;;24.90;57.03;99601.88;5106071;28;20451;-69
2021/08/12 00:35:29;;;;;;;14.35;12.93;;;;;;;24.88;57.07;99612.16;5108769;28;20026;-69
2021/08/12 00:37:54;;;;;;;15.82;12.07;;;;;;;24.71;58.23;99600.50;5101468;28;20040;-67
2021/08/12 00:40:20;;;;;;;15.35;13.43;;;;;;;24.82;57.29;99606.13;5110383;28;20077;-69
2021/08/12 00:42:46;;;;;;;21.88;13.40;;;;;;;24.87;57.30;99611.34;5106644;28;20031;-70
2021/08/12 00:45:11;;;;;;;17.52;14.20;;;;;;;24.78;57.52;99613.91;5117581;28;20106;-70
2021/08/12 00:47:37;;;;;;;20.85;13.30;;;;;;;24.87;57.36;99619.91;5143443;27;20047;-69
2021/08/12 00:50:03;;;;;;;17.83;13.02;;;;;;;25.00;57.64;99617.31;5110112;28;20072;-69
2021/08/12 00:52:31;;;;;;;16.92;13.15;;;;;;;24.94;57.50;99610.44;5112056;28;20035;-70
2021/08/12 00:54:58;;;;;;;14.45;12.18;;;;;;;25.04;57.26;99620.91;5110573;28;20022;-71
2021/08/12 00:57:24;;;;;;;14.43;12.25;;;;;;;25.05;57.30;99622.53;5112729;28;20078;-70
2021/08/12 00:59:49;;;;;;;14.13;12.63;;;;;;;25.11;57.27;99613.47;5112948;28;20040;-70
2021/08/12 01:02:15;;;;;;;16.88;11.00;;;;;;;25.18;56.25;99613.34;5116047;27;20545;-69
2021/08/12 01:04:42;;;;;;;13.63;11.40;;;;;;;25.06;56.34;99614.75;5131378;27;20436;-69
2021/08/12 01:07:32;;;;;;;16.15;10.65;;;;;;;25.02;56.72;99614.81;5127911;27;20027;-70
2021/08/12 01:10:14;;;;;;;14.50;11.90;;;;;;;24.94;56.65;99610.44;5110186;27;20135;-71
2021/08/12 01:12:45;;;;;;;18.50;12.05;;;;;;;24.94;56.90;99607.56;5112662;27;20099;-70
2021/08/12 01:15:17;;;;;;;18.80;12.00;;;;;;;24.88;57.03;99604.38;5113862;28;20027;-69
2021/08/12 01:18:00;;;;;;;14.88;12.48;;;;;;;24.98;57.19;99599.75;5113586;28;20027;-70
2021/08/12 01:20:57;;;;;;;14.35;12.25;;;;;;;24.99;56.85;99594.84;5116566;27;20576;-69
2021/08/12 01:23:25;;;;;;;13.50;11.82;;;;;;;25.04;56.52;99598.03;5116056;27;20035;-69
2021/08/12 01:25:53;;;;;;;16.20;12.23;;;;;;;25.09;56.48;99596.72;5112386;28;20020;-70
2021/08/12 01:28:23;;;;;;;14.02;12.57;;;;;;;24.92;57.09;99593.72;5118991;27;20034;-69
2021/08/12 01:30:56;;;;;;;17.17;12.38;;;;;;;24.81;57.94;99587.34;5119987;27;20093;-70
2021/08/12 01:33:33;;;;;;;15.32;13.57;;;;;;;24.55;58.73;99581.09;5114189;27;20027;-69
2021/08/12 01:36:02;;;;;;;18.90;13.93;;;;;;;24.50;58.47;99585.28;5112083;28;20026;-71
2021/08/12 01:38:30;;;;;;;14.43;12.98;;;;;;;24.42;58.58;99582.91;5107301;27;20074;-70
2021/08/12 01:40:57;;;;;;;15.90;13.55;;;;;;;24.44;58.12;99574.75;5112009;28;20019;-69
2021/08/12 01:43:24;;;;;;;17.08;13.18;;;;;;;24.54;57.76;99574.59;5116089;27;20489;-71
2021/08/12 01:45:52;;;;;;;17.95;13.73;;;;;;;24.34;58.69;99579.34;5110132;28;20032;-70
2021/08/12 01:48:18;;;;;;;17.65;14.00;;;;;;;24.34;59.00;99579.34;5116906;27;20474;-69
2021/08/12 01:50:44;;;;;;;16.70;14.80;;;;;;;24.27;59.04;99571.66;5121789;27;20027;-69
2021/08/12 01:53:11;;;;;;;22.00;15.35;;;;;;;24.32;58.74;99571.22;5118976;27;20023;-69
2021/08/12 01:55:37;;;;;;;18.00;15.48;;;;;;;24.18;59.17;99574.22;5116391;27;20020;-69
2021/08/12 01:58:04;;;;;;;16.30;14.35;;;;;;;24.26;59.24;99578.63;5123700;27;20023;-70
2021/08/12 02:00:31;;;;;;;16.63;14.90;;;;;;;24.42;58.75;99574.34;5127989;27;20078;-69
2021/08/12 02:02:58;;;;;;;17.98;14.25;;;;;;;24.46;58.33;99573.06;5129270;27;20031;-70
2021/08/12 02:05:24;;;;;;;16.90;13.95;;;;;;;24.41;58.52;99570.69;5113416;27;20042;-69
2021/08/12 02:07:51;;;;;;;15.95;13.90;;;;;;;24.40;58.51;99564.16;5128621;27;20081;-69
2021/08/12 02:10:17;;;;;;;17.95;14.45;;;;;;;24.36;57.91;99563.38;5123807;27;20019;-70
2021/08/12 02:12:43;;;;;;;24.30;14.07;;;;;;;24.39;57.90;99564.59;5127149;27;20041;-69
2021/08/12 02:15:10;;;;;;;15.40;13.80;;;;;;;24.36;58.02;99571.13;5112082;27;20558;-70
2021/08/12 02:17:36;;;;;;;16.67;14.05;;;;;;;24.40;58.26;99566.22;5116184;27;20028;-71
2021/08/12 02:20:11;;;;;;;15.20;13.38;;;;;;;24.37;58.40;99564.19;5123768;27;20087;-71
2021/08/12 02:23:06;;;;;;;16.27;12.85;;;;;;;24.46;58.44;99560.81;5122792;27;20042;-71
2021/08/12 02:25:36;;;;;;;12.70;11.38;;;;;;;24.47;57.83;99559.59;5114199;27;20039;-70
2021/08/12 02:28:08;;;;;;;15.07;11.82;;;;;;;24.56;57.14;99562.75;5129236;27;20568;-70
2021/08/12 02:30:36;;;;;;;12.52;11.00;;;;;;;24.56;57.25;99567.63;5124205;27;20027;-70
2021/08/12 02:33:03;;;;;;;15.18;11.93;;;;;;;24.65;56.87;99565.06;5128258;27;20469;-70
2021/08/12 02:35:30;;;;;;;13.13;11.73;;;;;;;24.67;56.99;99568.28;5122693;27;20027;-71
2021/08/12 02:37:57;;;;;;;12.90;11.63;;;;;;;24.63;56.79;99573.25;5125324;27;20053;-69
2021/08/12 02:40:25;;;;;;;13.27;11.90;;;;;;;24.71;57.15;99579.69;5122144;27;20084;-69
2021/08/12 02:42:51;;;;;;;14.40;11.60;;;;;;;24.74;56.97;99578.81;5121643;27;20079;-69
2021/08/12 02:45:18;;;;;;;12.65;11.45;;;;;;;24.70;57.11;99583.78;5118726;27;20459;-70
2021/08/12 02:47:44;;;;;;;13.77;10.85;;;;;;;24.68;57.35;99579.31;5115082;27;20031;-69
2021/08/12 02:50:10;;;;;;;11.93;10.73;;;;;;;24.71;56.95;99577.63;5116872;27;20018;-69
2021/08/12 02:52:37;;;;;;;13.70;11.68;;;;;;;24.81;56.44;99578.75;5113432;27;20035;-69
2021/08/12 02:55:04;;;;;;;12.43;11.15;;;;;;;24.73;56.03;99583.72;5115937;27;20036;-69
2021/08/12 02:57:30;;;;;;;15.95;11.73;;;;;;;24.68;56.35;99581.34;5114257;27;20041;-69
2021/08/12 02:59:56;;;;;;;13.90;12.00;;;;;;;24.63;56.39;99584.69;5113529;27;20036;-69
2021/08/12 03:02:24;;;;;;;10.93;9.70;;;;;;;24.63;56.26;99585.50;5114921;27;20032;-69
2021/08/12 03:04:50;;;;;;;13.73;10.43;;;;;;;24.60;56.10;99588.41;5113076;27;20032;-69
2021/08/12 03:07:18;;;;;;;17.48;10.55;;;;;;;24.52;56.58;99588.50;5112828;27;20499;-69
2021/08/12 03:09:48;;;;;;;12.52;10.60;;;;;;;24.55;56.17;99586.81;5112145;27;20412;-69
2021/08/12 03:12:15;;;;;;;13.85;9.85;;;;;;;24.54;55.97;99582.34;5109232;27;20424;-69
2021/08/12 03:14:41;;;;;;;14.13;11.05;;;;;;;24.49;56.00;99597.13;5144611;27;20490;-69
2021/08/12 03:17:10;;;;;;;14.30;11.23;;;;;;;24.44;56.08;99594.75;5111594;28;20071;-69
2021/08/12 03:19:35;;;;;;;12.27;11.00;;;;;;;24.41;56.52;99596.41;5111445;28;20073;-69
2021/08/12 03:22:04;;;;;;;12.98;10.75;;;;;;;24.39;56.15;99601.75;5110559;28;20035;-71
2021/08/12 03:24:33;;;;;;;18.92;10.88;;;;;;;24.28;56.69;99598.22;5114236;27;20085;-69
2021/08/12 03:26:59;;;;;;;22.40;11.45;;;;;;;24.17;56.91;99596.28;5129109;27;20510;-69
2021/08/12 03:29:25;;;;;;;19.10;11.10;;;;;;;24.24;56.80;99603.97;5114490;27;20031;-69
2021/08/12 03:31:50;;;;;;;24.63;11.80;;;;;;;24.16;56.94;99597.53;5116440;27;20036;-69
2021/08/12 03:34:16;;;;;;;15.00;11.18;;;;;;;23.92;57.64;99603.06;5115255;27;20023;-70
2021/08/12 03:36:41;;;;;;;15.45;10.40;;;;;;;23.90;57.52;99605.53;5112565;27;20039;-70
2021/08/12 03:39:07;;;;;;;14.43;11.02;;;;;;;23.94;57.57;99606.28;5114454;27;20073;-70
2021/08/12 03:41:32;;;;;;;15.90;11.20;;;;;;;23.96;57.33;99612.38;5116493;27;20118;-69
2021/08/12 03:43:58;;;;;;;14.98;10.77;;;;;;;23.98;57.35;99609.91;5120655;27;20055;-69
2021/08/12 03:46:23;;;;;;;15.98;11.25;;;;;;;23.96;57.43;99608.72;5114879;27;20382;-70
2021/08/12 03:48:48;;;;;;;18.20;12.15;;;;;;;24.07;56.78;99611.50;5111276;28;20393;-70
2021/08/12 03:51:14;;;;;;;21.13;12.82;;;;;;;24.05;56.93;99608.25;5116770;27;20450;-69
2021/08/12 03:53:39;;;;;;;12.93;10.65;;;;;;;23.95;57.49;99612.78;5113732;27;20389;-69
2021/08/12 03:56:05;;;;;;;24.15;11.32;;;;;;;24.07;57.32;99620.06;5122567;27;20019;-69
2021/08/12 03:58:32;;;;;;;26.52;11.40;;;;;;;24.13;57.26;99617.56;5119244;27;20382;-71
2021/08/12 04:00:58;;;;;;;15.23;11.88;;;;;;;24.13;56.79;99621.19;5110373;27;20050;-70
2021/08/12 04:03:24;;;;;;;17.10;11.77;;;;;;;24.21;56.49;99621.97;5129644;27;20466;-70
2021/08/12 04:05:50;;;;;;;25.23;12.13;;;;;;;23.96;56.80;99620.94;5130297;27;20019;-69
2021/08/12 04:08:16;;;;;;;23.08;13.52;;;;;;;23.93;56.91;99620.97;5116686;27;20035;-70
2021/08/12 04:10:42;;;;;;;14.52;12.95;;;;;;;23.77;57.74;99625.22;5117503;28;20019;-69
2021/08/12 04:13:07;;;;;;;15.85;12.68;;;;;;;23.90;57.55;99627.53;5109490;28;20032;-70
2021/08/12 04:15:33;;;;;;;19.73;15.38;;;;;;;24.15;56.80;99624.47;5111591;28;20067;-72
2021/08/12 04:17:58;;;;;;;23.52;16.10;;;;;;;23.89;58.71;99629.59;5108009;27;20495;-77
2021/08/12 04:20:24;;;;;;;23.98;17.92;;;;;;;23.85;59.56;99625.97;5107238;28;20055;-74
2021/08/12 04:22:49;;;;;;;27.38;17.48;;;;;;;23.85;60.11;99628.81;5110808;28;20043;-77
2021/08/12 04:25:15;;;;;;;24.63;18.02;;;;;;;23.78;60.11;99623.97;5110402;28;20024;-74
2021/08/12 04:27:40;;;;;;;25.33;18.55;;;;;;;23.78;60.37;99629.69;5105354;28;20039;-75
2021/08/12 04:30:06;;;;;;;25.63;20.08;;;;;;;23.73;60.42;99640.75;5110511;28;20032;-74
2021/08/12 04:32:32;;;;;;;22.63;18.55;;;;;;;23.75;60.53;99638.28;5147594;27;20116;-76
2021/08/12 04:34:58;;;;;;;21.73;19.30;;;;;;;23.69;60.70;99641.59;5112861;28;20027;-71
2021/08/12 04:37:24;;;;;;;28.05;19.88;;;;;;;23.69;60.83;99641.59;5109891;27;20147;-71
2021/08/12 04:39:49;;;;;;;21.48;19.17;;;;;;;23.68;60.58;99637.13;5119009;27;20019;-70
2021/08/12 04:42:15;;;;;;;25.67;19.80;;;;;;;23.46;61.47;99644.25;5123957;27;20023;-69
2021/08/12 04:44:40;;;;;;;23.23;18.08;;;;;;;23.54;61.26;99645.81;5107014;27;20548;-70
2021/08/12 04:47:06;;;;;;;24.45;19.17;;;;;;;23.41;61.73;99652.03;5111011;27;20041;-70
2021/08/12 04:49:31;;;;;;;28.92;19.65;;;;;;;23.57;61.74;99650.69;5115496;27;20027;-70
2021/08/12 04:51:57;;;;;;;19.52;16.90;;;;;;;23.69;61.23;99655.06;5117341;27;20040;-71
2021/08/12 04:54:22;;;;;;;20.85;17.92;;;;;;;23.73;61.18;99655.03;5114164;27;20409;-71
2021/08/12 04:56:47;;;;;;;22.85;16.65;;;;;;;23.81;61.59;99653.75;5110937;28;20023;-70
2021/08/12 04:59:13;;;;;;;17.42;14.60;;;;;;;23.87;60.26;99663.47;5114163;28;20050;-70
2021/08/12 05:01:39;;;;;;;19.05;14.82;;;;;;;23.89;60.22;99663.06;5114143;28;20038;-70
2021/08/12 05:04:04;;;;;;;17.38;14.38;;;;;;;24.02;59.32;99663.34;5113316;27;20094;-72
2021/08/12 05:06:32;;;;;;;21.65;14.45;;;;;;;23.92;59.28;99654.47;5114060;27;20035;-71
2021/08/12 05:08:58;;;;;;;19.88;13.82;;;;;;;24.09;58.73;99657.56;5132783;27;20030;-70
2021/08/12 05:11:24;;;;;;;19.30;14.57;;;;;;;24.10;58.98;99662.06;5133521;27;20454;-69
2021/08/12 05:13:49;;;;;;;19.95;15.00;;;;;;;24.18;58.66;99654.22;5118861;27;20102;-71
2021/08/12 05:16:15;;;;;;;26.35;15.45;;;;;;;24.23;58.66;99659.47;5120416;27;20019;-71
2021/08/12 05:18:40;;;;;;;16.77;13.57;;;;;;;24.40;58.02;99652.75;5117982;27;20032;-72
2021/08/12 05:21:06;;;;;;;23.85;13.82;;;;;;;24.47;57.58;99660.44;5113565;27;20420;-70
2021/08/12 05:23:31;;;;;;;20.77;14.10;;;;;;;24.56;57.79;99654.22;5111636;27;20028;-71
2021/08/12 05:25:57;;;;;;;19.02;13.13;;;;;;;24.62;57.25;99660.28;5110116;27;20024;-72
2021/08/12 05:28:22;;;;;;;20.27;14.23;;;;;;;24.68;56.89;99658.56;5120206;27;20366;-72
2021/08/12 05:30:47;;;;;;;23.90;14.55;;;;;;;24.74;56.95;99670.31;5111185;28;20447;-72
2021/08/12 05:33:13;;;;;;;17.95;12.95;;;;;;;24.80;57.09;99672.31;5104774;27;20027;-71
2021/08/12 05:35:38;;;;;;;15.35;13.82;;;;;;;24.84;55.91;99669.41;5130567;27;20031;-71
2021/08/12 05:38:04;;;;;;;21.63;13.35;;;;;;;24.91;55.76;99668.50;5130474;27;20050;-70
2021/08/12 05:40:29;;;;;;;15.27;12.40;;;;;;;25.05;55.75;99667.50;5122420;27;20505;-70
2021/08/12 05:42:57;;;;;;;20.20;14.32;;;;;;;25.11;55.31;99670.69;5110878;28;20160;-70
2021/08/12 05:45:22;;;;;;;24.35;14.25;;;;;;;25.22;55.02;99674.22;5113261;27;20450;-70
2021/08/12 05:47:48;;;;;;;19.08;14.45;;;;;;;25.32;54.12;99678.94;5118781;27;20027;-69
2021/08/12 05:50:13;;;;;;;19.38;14.73;;;;;;;25.30;54.14;99678.56;5117031;27;20027;-70
2021/08/12 05:52:39;;;;;;;16.20;13.68;;;;;;;25.41;53.98;99683.31;5116971;27;20386;-70
2021/08/12 05:55:05;;;;;;;19.25;13.73;;;;;;;25.57;53.64;99691.28;5123171;27;20512;-71
2021/08/12 05:57:30;;;;;;;26.13;15.10;;;;;;;25.52;53.71;99681.13;5127638;27;20047;-71
2021/08/12 05:59:56;;;;;;;15.60;13.98;;;;;;;25.55;52.53;99686.00;5108126;27;20023;-70
2021/08/12 06:02:21;;;;;;;16.15;12.95;;;;;;;25.67;52.83;99678.03;5127415;27;20072;-74
2021/08/12 06:04:47;;;;;;;21.27;14.60;;;;;;;25.77;52.49;99685.66;5122193;27;20027;-71
2021/08/12 06:07:13;;;;;;;12.88;11.63;;;;;;;25.83;51.75;99683.91;5124737;27;20504;-71
2021/08/12 06:09:39;;;;;;;16.92;12.85;;;;;;;25.97;51.59;99679.97;5117380;27;20027;-72
2021/08/12 06:12:05;;;;;;;15.05;13.43;;;;;;;25.99;51.20;99679.56;5122260;27;20105;-70
2021/08/12 06:14:30;;;;;;;13.48;11.93;;;;;;;26.03;50.62;99688.88;5126986;27;20019;-71
2021/08/12 06:16:56;;;;;;;16.95;11.07;;;;;;;26.13;50.47;99684.22;5118942;27;20362;-71
2021/08/12 06:19:21;;;;;;;13.30;11.00;;;;;;;26.26;50.38;99687.28;5118149;27;20481;-71
2021/08/12 06:21:46;;;;;;;17.15;12.02;;;;;;;26.39;50.50;99690.31;5123064;27;20088;-71
2021/08/12 06:24:14;;;;;;;17.95;11.52;;;;;;;26.44;50.83;99687.75;5124484;27;20019;-71
2021/08/12 06:26:40;;;;;;;21.10;11.18;;;;;;;26.52;50.75;99697.03;5112331;27;20123;-71
2021/08/12 06:29:06;;;;;;;17.05;10.57;;;;;;;26.56;48.78;99688.34;5094951;28;20480;-71
2021/08/12 06:31:31;;;;;;;13.13;11.75;;;;;;;26.66;49.42;99684.44;5110128;28;20035;-71
2021/08/12 06:33:57;;;;;;;14.25;11.65;;;;;;;26.80;49.21;99686.22;5112443;28;20455;-72
2021/08/12 06:36:22;;;;;;;13.68;10.25;;;;;;;26.88;49.25;99686.88;5111868;28;20035;-71
2021/08/12 06:38:48;;;;;;;19.70;11.50;;;;;;;27.02;49.17;99682.91;5113377;27;20052;-72
2021/08/12 06:41:13;;;;;;;15.70;10.27;;;;;;;27.05;48.97;99682.84;5113771;27;20586;-72
2021/08/12 06:43:39;;;;;;;19.58;11.13;;;;;;;27.13;48.21;99682.66;5112092;27;20489;-70
2021/08/12 06:46:04;;;;;;;21.85;10.82;;;;;;;27.26;48.70;99679.91;5108799;27;20020;-71
2021/08/12 06:48:30;;;;;;;15.05;10.43;;;;;;;27.34;47.76;99684.25;5122298;27;20023;-72
2021/08/12 06:50:55;;;;;;;17.90;10.18;;;;;;;27.39;48.04;99680.84;5121169;27;20488;-71
2021/08/12 06:53:21;;;;;;;19.42;10.93;;;;;;;27.49;48.12;99684.69;5120000;27;20032;-71
2021/08/12 06:55:46;;;;;;;12.15;8.98;;;;;;;27.58;47.05;99678.38;5116974;27;20030;-72
2021/08/12 06:58:12;;;;;;;12.52;9.50;;;;;;;27.65;46.36;99683.13;5123663;27;20058;-71
2021/08/12 07:00:37;;;;;;;19.25;11.02;;;;;;;27.74;47.55;99680.44;5129047;27;20027;-72
2021/08/12 07:03:03;;;;;;;15.93;10.13;;;;;;;27.83;46.57;99677.75;5125741;27;20030;-73
2021/08/12 07:05:28;;;;;;;24.98;10.02;;;;;;;27.95;46.31;99681.16;5104146;27;20503;-74
2021/08/12 07:07:54;;;;;;;13.68;9.32;;;;;;;28.03;46.32;99680.50;5113789;27;20035;-74
2021/08/12 07:10:19;;;;;;;17.10;8.70;;;;;;;28.12;46.08;99679.06;5113359;27;20035;-72
2021/08/12 07:12:44;;;;;;;17.58;9.23;;;;;;;28.22;45.39;99677.16;5109523;27;20039;-74
2021/08/12 07:15:10;;;;;;;13.68;9.75;;;;;;;28.39;44.54;99678.75;5111335;27;20034;-73
2021/08/12 07:17:36;;;;;;;13.02;8.38;;;;;;;28.54;43.64;99679.16;5123454;27;20058;-73
2021/08/12 07:20:03;;;;;;;19.65;10.40;;;;;;;28.61;44.16;99678.16;5119643;27;20057;-72
2021/08/12 07:22:28;;;;;;;9.68;8.63;;;;;;;28.63;44.16;99677.69;5118927;27;20053;-73
2021/08/12 07:24:54;;;;;;;14.57;9.23;;;;;;;28.67;43.96;99676.31;5139049;27;20485;-74
2021/08/12 07:27:19;;;;;;;13.70;8.32;;;;;;;28.76;43.70;99683.50;5118172;27;20497;-73
2021/08/12 07:29:45;;;;;;;10.05;7.68;;;;;;;28.84;42.64;99679.16;5113798;27;20024;-73
2021/08/12 07:32:11;;;;;;;21.25;8.93;;;;;;;28.91;42.64;99673.19;5097581;28;20429;-73
2021/08/12 07:34:37;;;;;;;18.70;9.32;;;;;;;29.00;41.82;99675.38;5120595;27;20020;-75
2021/08/12 07:37:04;;;;;;;12.68;8.27;;;;;;;29.16;41.84;99673.69;5129937;27;20173;-71
2021/08/12 07:39:29;;;;;;;10.07;7.90;;;;;;;29.22;41.72;99675.53;5128912;27;20048;-71
2021/08/12 07:41:55;;;;;;;12.10;7.75;;;;;;;29.38;40.43;99674.63;5114693;27;20031;-71
2021/08/12 07:44:21;;;;;;;16.90;7.85;;;;;;;29.40;40.65;99679.91;5129820;27;20043;-74
2021/08/12 07:46:47;;;;;;;10.75;8.23;;;;;;;29.50;41.10;99677.97;5120693;27;20026;-76
2021/08/12 07:49:12;;;;;;;10.75;7.40;;;;;;;29.60;39.98;99681.78;5127576;27;20030;-71
2021/08/12 07:51:38;;;;;;;8.77;7.90;;;;;;;29.79;39.46;99683.59;5115063;27;20035;-74
2021/08/12 07:54:03;;;;;;;8.43;7.57;;;;;;;29.77;39.83;99691.09;5125372;27;20674;-75
2021/08/12 07:56:29;;;;;;;15.20;8.25;;;;;;;29.98;39.40;99683.78;5119495;27;20073;-72
2021/08/12 07:58:55;;;;;;;12.32;8.13;;;;;;;30.08;39.08;99682.66;5117485;27;20028;-78
2021/08/12 08:01:20;;;;;;;8.65;7.80;;;;;;;30.03;39.21;99680.31;5117894;27;20020;-78
2021/08/12 08:03:46;;;;;;;9.68;7.93;;;;;;;30.17;39.66;99681.94;5126539;27;20119;-75
2021/08/12 08:06:12;;;;;;;9.68;7.65;;;;;;;30.25;38.84;99686.19;5114975;27;20023;-72
2021/08/12 08:08:38;;;;;;;11.63;7.00;;;;;;;30.25;39.57;99686.19;5157762;27;20038;-74
2021/08/12 08:11:04;;;;;;;14.82;7.57;;;;;;;30.32;39.14;99682.22;5127988;27;20118;-78
2021/08/12 08:13:30;;;;;;;9.75;6.88;;;;;;;30.46;38.46;99682.97;5127422;27;20489;-75
2021/08/12 08:15:56;;;;;;;8.40;7.13;;;;;;;30.63;38.80;99675.75;5128053;28;20477;-75
2021/08/12 08:18:21;;;;;;;11.35;7.40;;;;;;;30.66;38.24;99676.91;5129058;27;20031;-74
2021/08/12 08:20:46;;;;;;;9.93;6.65;;;;;;;30.76;38.26;99669.09;5127509;27;20499;-74
2021/08/12 08:23:12;;;;;;;14.55;6.90;;;;;;;30.94;37.43;99663.47;5128995;28;20023;-76
2021/08/12 08:25:38;;;;;;;21.77;6.88;;;;;;;31.00;37.73;99672.31;5128827;27;20419;-78
2021/08/12 08:28:04;;;;;;;8.90;6.93;;;;;;;31.05;36.01;99665.91;5125318;28;20035;-78
2021/08/12 08:30:32;;;;;;;10.02;6.70;;;;;;;31.23;35.48;99662.34;5110537;28;20023;-75
2021/08/12 08:32:58;;;;;;;9.23;6.35;;;;;;;31.19;35.99;99655.88;5108980;28;20012;-78
2021/08/12 08:35:25;;;;;;;10.82;6.40;;;;;;;31.17;35.79;99664.22;5110533;28;20031;-82
2021/08/12 08:37:52;;;;;;;9.75;6.78;;;;;;;31.21;36.08;99650.44;5110489;28;20051;-85
2021/08/12 08:40:17;;;;;;;8.05;5.90;;;;;;;31.36;36.09;99650.69;5096352;28;20047;-74
2021/08/12 08:42:43;;;;;;;20.80;7.93;;;;;;;31.41;36.18;99643.50;5109040;28;20028;-74
2021/08/12 08:45:10;;;;;;;12.48;6.75;;;;;;;31.49;34.42;99641.88;5110525;28;20106;-74
2021/08/12 08:47:36;;;;;;;11.15;6.30;;;;;;;31.52;35.08;99643.03;5110922;28;20020;-75
2021/08/12 08:50:03;;;;;;;9.90;6.03;;;;;;;31.61;34.82;99642.25;5110279;28;20043;-75
2021/08/12 08:52:29;;;;;;;10.82;6.78;;;;;;;31.77;34.54;99646.94;5125930;28;20023;-75
2021/08/12 08:54:55;;;;;;;11.52;5.85;;;;;;;31.78;35.10;99639.88;5110185;28;20565;-81
2021/08/12 08:57:21;;;;;;;83.97;15.18;;;;;;;31.76;34.78;99637.47;5126310;28;20028;-75
2021/08/12 08:59:47;;;;;;;127.00;14.45;;;;;;;31.72;33.51;99633.13;5110326;28;20027;-85
2021/08/12 09:02:13;;;;;;;92.75;9.63;;;;;;;31.84;33.74;99642.97;5108881;28;20035;-74
2021/08/12 09:04:39;;;;;;;103.07;14.13;;;;;;;31.96;32.48;99642.03;5108992;28;20036;-77
2021/08/12 09:07:09;;;;;;;12.70;5.68;;;;;;;32.03;33.24;99643.81;5110267;28;20066;-79
2021/08/12 09:09:35;;;;;;;13.65;5.90;;;;;;;32.11;32.91;99638.53;5125956;28;20032;-76
2021/08/12 09:12:02;;;;;;;8.35;5.93;;;;;;;32.10;32.53;99625.31;5108642;28;20055;-77
2021/08/12 09:15:00;;;;;;;9.88;5.45;;;;;;;32.19;30.73;99626.16;5109004;28;20040;-75
2021/08/12 09:17:26;;;;;;;6.70;5.20;;;;;;;32.30;30.32;99634.34;5110486;28;20519;-74
2021/08/12 09:20:14;;;;;;;10.02;5.70;;;;;;;32.35;30.83;99627.94;5146927;27;20031;-76
2021/08/12 09:22:57;;;;;;;11.43;5.88;;;;;;;32.42;32.39;99623.91;5146802;27;20065;-74
2021/08/12 09:25:41;;;;;;;10.98;5.90;;;;;;;32.38;31.08;99634.06;5113656;28;20027;-76
2021/08/12 09:28:19;;;;;;;9.75;5.45;;;;;;;32.46;30.94;99620.84;5116974;27;20063;-76
2021/08/12 09:31:07;;;;;;;12.40;6.22;;;;;;;32.59;29.06;99609.09;5113587;28;20051;-73
2021/08/12 09:33:42;;;;;;;8.20;5.25;;;;;;;32.57;28.48;99615.34;5113569;27;20036;-73
2021/08/12 09:36:33;;;;;;;12.00;5.57;;;;;;;32.61;28.96;99613.13;5113548;27;20427;-74
2021/08/12 09:39:22;;;;;;;6.72;4.88;;;;;;;32.78;30.91;99618.53;5104760;27;20123;-74
2021/08/12 09:41:50;;;;;;;9.65;5.55;;;;;;;32.91;29.25;99613.38;5106026;27;20039;-73
2021/08/12 09:44:50;;;;;;;7.28;5.50;;;;;;;33.10;28.92;99613.31;5113894;27;20032;-73
2021/08/12 09:47:18;;;;;;;7.72;6.03;;;;;;;33.06;28.40;99618.47;5100711;27;20488;-74
2021/08/12 09:49:55;;;;;;;7.13;5.07;;;;;;;33.15;28.65;99626.34;5126925;27;20048;-74
2021/08/12 09:52:29;;;;;;;7.88;5.68;;;;;;;33.08;29.15;99629.56;5108220;27;20041;-74
2021/08/12 09:55:11;;;;;;;10.10;5.43;;;;;;;32.86;28.88;99634.28;5118687;27;20040;-73
2021/08/12 09:58:15;;;;;;;8.45;5.38;;;;;;;32.70;29.39;99623.88;5121476;27;20398;-73
2021/08/12 10:00:44;;;;;;;5.90;5.25;;;;;;;32.71;27.99;99636.25;5078223;28;20446;-73
2021/08/12 10:03:26;;;;;;;6.88;5.57;;;;;;;32.57;27.87;99629.81;5085370;28;20028;-73
2021/08/12 10:05:53;;;;;;;7.00;4.93;;;;;;;32.48;27.69;99648.00;5095621;27;20393;-73
2021/08/12 10:08:35;;;;;;;9.07;6.07;;;;;;;32.43;28.08;99647.84;5123459;27;20039;-73
2021/08/12 10:11:28;;;;;;;8.45;5.72;;;;;;;32.39;28.30;99635.66;5144538;27;20041;-73
2021/08/12 10:13:55;;;;;;;9.00;5.10;;;;;;;32.34;28.69;99639.97;5118130;27;20050;-73
2021/08/12 10:16:21;;;;;;;6.63;5.20;;;;;;;32.30;29.27;99636.44;5127092;27;20023;-73
2021/08/12 10:18:48;;;;;;;10.85;5.65;;;;;;;32.22;29.62;99639.66;5117212;27;20467;-73
2021/08/12 10:21:17;;;;;;;9.25;5.57;;;;;;;32.19;29.88;99636.91;5126566;27;20023;-73
2021/08/12 10:23:46;;;;;;;7.25;5.25;;;;;;;32.18;30.53;99639.00;5113453;27;20042;-73
2021/08/12 10:26:13;;;;;;;9.63;5.97;;;;;;;32.13;30.77;99635.94;5116842;27;20418;-73
2021/08/12 10:28:42;;;;;;;11.13;5.85;;;;;;;32.12;30.85;99638.03;5114498;27;20519;-73
2021/08/12 10:31:08;;;;;;;15.05;6.53;;;;;;;32.13;31.13;99635.94;5146330;27;20028;-73
2021/08/12 10:33:35;;;;;;;11.02;6.05;;;;;;;32.12;31.57;99631.44;5112538;27;20040;-73
2021/08/12 10:36:01;;;;;;;6.28;5.70;;;;;;;32.13;31.59;99627.28;5119802;27;20023;-74
2021/08/12 10:38:27;;;;;;;11.07;5.72;;;;;;;32.11;32.37;99619.06;5113080;27;20426;-73
2021/08/12 10:40:53;;;;;;;9.43;5.25;;;;;;;32.12;33.22;99619.88;5110930;28;20544;-73
2021/08/12 10:43:26;;;;;;;12.10;5.88;;;;;;;32.13;33.49;99624.38;5111844;27;20023;-73
2021/08/12 10:45:57;;;;;;;8.10;5.28;;;;;;;32.18;32.67;99620.84;5107138;27;20028;-73
2021/08/12 10:48:24;;;;;;;16.92;5.97;;;;;;;32.25;32.04;99623.41;5123653;27;20055;-73
2021/08/12 10:51:12;;;;;;;10.40;5.85;;;;;;;32.19;32.08;99622.44;5130529;27;20035;-74
2021/08/12 10:54:04;;;;;;;9.23;5.22;;;;;;;32.20;31.81;99626.94;5125466;27;20027;-73
2021/08/12 10:56:39;;;;;;;6.63;5.53;;;;;;;32.21;31.44;99625.66;5126377;27;20034;-73
2021/08/12 10:59:05;;;;;;;8.05;5.25;;;;;;;32.21;31.44;99626.47;5107176;27;20050;-73
2021/08/12 11:01:39;;;;;;;7.68;5.35;;;;;;;32.25;30.54;99617.63;5124844;27;20035;-73
2021/08/12 11:04:05;;;;;;;6.55;4.85;;;;;;;32.25;30.50;99619.72;5111305;27;20023;-73
2021/08/12 11:06:40;;;;;;;15.05;5.70;;;;;;;32.27;31.06;99623.72;5121828;27;20065;-73
2021/08/12 11:09:08;;;;;;;10.70;5.07;;;;;;;32.29;30.64;99626.16;5125199;27;20023;-73
2021/08/12 11:11:33;;;;;;;9.95;5.53;;;;;;;32.30;29.74;99622.75;5121682;27;20038;-73
2021/08/12 11:14:40;;;;;;;18.85;4.85;;;;;;;32.31;29.00;99623.56;5118969;27;20113;-73
2021/08/12 11:17:05;;;;;;;13.00;4.45;;;;;;;32.35;28.66;99630.84;5113537;27;20030;-75
2021/08/12 11:19:35;;;;;;;6.45;4.75;;;;;;;32.37;29.68;99624.56;5115042;27;20032;-73
2021/08/12 11:22:01;;;;;;;9.73;5.30;;;;;;;32.39;29.34;99624.88;5116153;27;20023;-73
2021/08/12 11:24:27;;;;;;;6.43;4.90;;;;;;;32.42;28.78;99623.91;5123022;27;20424;-73
2021/08/12 11:26:52;;;;;;;6.90;5.32;;;;;;;32.48;28.76;99627.75;5119673;27;20031;-75